createdAt,value
2023-05-12T00:03:23.992Z,14.18
2023-05-12T00:08:26.819Z,14.15
2023-05-12T00:13:31.197Z,15.07
2023-05-12T00:18:33.969Z,14.07
2023-05-12T00:23:36.803Z,13.02
2023-05-12T00:28:40.924Z,12.73
2023-05-12T00:33:43.712Z,10.75
2023-05-12T00:38:46.400Z,11.02
2023-05-12T00:43:50.510Z,11.65
2023-05-12T00:48:53.774Z,11.05
2023-05-12T00:53:57.350Z,10.23
2023-05-12T00:59:01.475Z,9.95
2023-05-12T01:04:05.064Z,9.43
2023-05-12T01:09:09.190Z,8.55
2023-05-12T01:14:13.829Z,7.15
2023-05-12T01:19:34.657Z,6.30
2023-05-12T01:24:43.720Z,4.22
2023-05-12T01:29:49.115Z,3.85
2023-05-12T01:34:53.798Z,3.63
2023-05-12T01:39:57.377Z,3.88
2023-05-12T01:45:01.853Z,3.67
2023-05-12T01:50:06.903Z,4.22
2023-05-12T01:55:10.240Z,3.20
2023-05-12T02:00:22.534Z,4.18
2023-05-12T02:05:28.618Z,3.60
2023-05-12T02:10:31.946Z,3.42
2023-05-12T02:15:36.272Z,3.28
2023-05-12T02:20:39.244Z,3.70
2023-05-12T02:25:42.409Z,2.25
2023-05-12T02:30:52.910Z,2.30
2023-05-12T02:35:56.225Z,2.72
2023-05-12T02:40:59.636Z,2.47
2023-05-12T02:46:04.559Z,2.90
2023-05-12T02:51:08.050Z,2.95
2023-05-12T02:56:10.973Z,3.08
2023-05-12T03:01:15.191Z,2.88
2023-05-12T03:06:18.195Z,2.40
2023-05-12T03:11:21.407Z,2.35
2023-05-12T03:16:25.564Z,3.13
2023-05-12T03:21:29.038Z,3.05
2023-05-12T03:26:31.901Z,3.72
2023-05-12T03:31:36.439Z,3.53
2023-05-12T03:36:40.959Z,3.47
2023-05-12T03:41:43.819Z,3.97
2023-05-12T03:46:48.123Z,3.55
2023-05-12T03:51:51.022Z,4.25
2023-05-12T03:56:55.052Z,3.72
2023-05-12T04:02:00.070Z,4.18
2023-05-12T04:07:03.899Z,3.42
2023-05-12T04:25:07.157Z,2.42
2023-05-12T04:30:11.586Z,2.55
2023-05-12T04:35:19.237Z,2.27
2023-05-12T04:40:23.772Z,1.33
2023-05-12T04:45:26.826Z,1.65
2023-05-12T04:50:31.108Z,1.55
2023-05-12T04:55:35.167Z,1.55
2023-05-12T05:00:38.152Z,1.25
2023-05-12T05:05:42.521Z,1.38
2023-05-12T05:10:48.021Z,1.30
2023-05-12T05:15:52.149Z,1.63
2023-05-12T05:20:58.868Z,2.10
2023-05-12T05:26:03.463Z,2.10
2023-05-12T05:31:07.410Z,2.95
2023-05-12T05:36:14.710Z,3.60
2023-05-12T05:41:19.587Z,4.53
2023-05-12T05:46:22.469Z,5.35
2023-05-12T05:51:27.317Z,5.15
2023-05-12T05:56:32.833Z,5.85
2023-05-12T06:01:35.742Z,6.30
2023-05-12T06:06:41.387Z,6.47
2023-05-12T06:11:44.969Z,5.70
2023-05-12T06:16:47.803Z,10.20
2023-05-12T06:21:53.230Z,5.90
2023-05-12T06:26:57.213Z,6.50
2023-05-12T06:32:03.857Z,5.18
2023-05-12T06:37:08.747Z,5.65
2023-05-12T06:42:12.249Z,6.15
2023-05-12T06:47:18.667Z,5.40
2023-05-12T06:52:24.246Z,5.28
2023-05-12T06:57:26.979Z,4.47
2023-05-12T07:02:30.359Z,4.28
2023-05-12T07:07:35.567Z,5.07
2023-05-12T07:12:41.334Z,4.80
2023-05-12T07:17:44.155Z,4.10
2023-05-12T07:22:49.213Z,5.40
2023-05-12T07:27:52.320Z,3.60
2023-05-12T07:32:55.903Z,3.72
2023-05-12T07:38:02.858Z,3.90
2023-05-12T07:43:05.816Z,3.88
2023-05-12T07:48:09.528Z,3.45
2023-05-12T07:53:15.353Z,4.90
2023-05-12T07:58:18.079Z,4.28
2023-05-12T08:03:21.146Z,4.05
2023-05-12T08:08:28.412Z,3.88
2023-05-12T08:13:31.212Z,3.67
2023-05-12T08:18:34.382Z,3.97
2023-05-12T08:23:41.122Z,3.35
2023-05-12T08:28:43.936Z,4.18
2023-05-12T08:33:51.758Z,3.42
2023-05-12T08:38:58.348Z,4.07
2023-05-12T08:44:01.392Z,3.20
2023-05-12T08:49:05.593Z,2.90
2023-05-12T08:54:10.981Z,3.13
2023-05-12T08:59:15.372Z,3.72
2023-05-12T09:04:18.204Z,3.05
2023-05-12T09:09:23.181Z,3.63
2023-05-12T09:14:30.516Z,3.28
2023-05-12T09:19:35.064Z,2.90
2023-05-12T09:24:40.617Z,3.75
2023-05-12T09:29:58.534Z,3.58
2023-05-12T09:35:07.959Z,2.35
2023-05-12T09:40:15.952Z,3.20
2023-05-12T09:45:22.838Z,2.92
2023-05-12T09:50:32.505Z,2.78
2023-05-12T09:55:44.029Z,2.50
2023-05-12T10:05:57.441Z,2.65
2023-05-12T10:11:03.484Z,2.80
2023-05-12T10:16:09.295Z,2.75
2023-05-12T10:21:14.031Z,3.03
2023-05-12T10:26:18.881Z,2.45
2023-05-12T10:31:24.392Z,3.08
2023-05-12T10:36:27.624Z,12.77
2023-05-12T10:41:33.313Z,12.73
2023-05-12T10:46:36.431Z,2.70
2023-05-12T10:51:52.031Z,2.65
2023-05-12T10:56:59.943Z,2.72
2023-05-12T11:02:09.000Z,2.70
2023-05-12T11:07:16.714Z,2.90
2023-05-12T11:12:21.369Z,2.72
2023-05-12T11:17:25.558Z,2.88
2023-05-12T11:22:33.724Z,3.05
2023-05-12T11:27:39.284Z,2.67
2023-05-12T11:32:42.470Z,3.47
2023-05-12T11:37:47.926Z,2.85
2023-05-12T11:42:55.712Z,3.35
2023-05-12T11:48:09.473Z,2.83
2023-05-12T11:53:14.764Z,3.50
2023-05-12T11:58:23.785Z,4.53
2023-05-12T12:03:26.966Z,2.83
2023-05-12T12:08:30.490Z,2.97
2023-05-12T12:13:36.682Z,3.13
2023-05-12T12:18:40.999Z,2.90
2023-05-12T12:23:50.816Z,2.95
2023-05-12T12:28:57.538Z,2.95
2023-05-12T12:34:01.530Z,13.88
2023-05-12T12:39:04.711Z,2.95
2023-05-12T12:44:09.600Z,3.55
2023-05-12T12:49:12.355Z,3.25
2023-05-12T12:54:15.669Z,4.22
2023-05-12T12:59:19.847Z,3.65
2023-05-12T13:04:23.575Z,3.22
2023-05-12T13:09:28.034Z,3.45
2023-05-12T13:14:32.531Z,4.03
2023-05-12T13:19:38.076Z,4.57
2023-05-12T13:24:41.551Z,3.50
2023-05-12T13:29:47.207Z,4.10
2023-05-12T13:34:52.445Z,4.65
2023-05-12T13:39:55.615Z,3.40
2023-05-12T13:45:00.013Z,2.75
2023-05-12T13:50:02.927Z,3.83
2023-05-12T13:55:06.404Z,3.35
2023-05-12T14:00:14.590Z,2.40
2023-05-12T14:05:23.461Z,3.03
2023-05-12T14:10:26.509Z,2.67
2023-05-12T14:15:47.330Z,2.90
2023-05-12T14:20:55.270Z,3.13
2023-05-12T14:25:58.689Z,2.60
2023-05-12T14:31:03.547Z,3.00
2023-05-12T14:36:10.775Z,2.80
2023-05-12T14:41:13.794Z,2.25
2023-05-12T14:46:18.701Z,2.92
2023-05-12T14:51:22.510Z,2.35
2023-05-12T14:56:25.782Z,2.85
2023-05-12T15:01:29.916Z,2.25
2023-05-12T15:06:33.974Z,2.30
2023-05-12T15:11:36.919Z,2.10
2023-05-12T15:16:44.254Z,2.40
2023-05-12T15:21:47.731Z,2.10
2023-05-12T15:26:53.105Z,2.58
2023-05-12T15:31:57.340Z,2.17
2023-05-12T15:37:00.723Z,2.58
2023-05-12T15:42:05.576Z,2.70
2023-05-12T15:47:11.627Z,3.63
2023-05-12T15:52:15.228Z,4.85
2023-05-12T15:57:18.685Z,3.53
2023-05-12T16:02:22.804Z,3.53
2023-05-12T16:07:29.380Z,3.33
2023-05-12T16:12:32.708Z,3.88
2023-05-12T16:17:37.738Z,4.15
2023-05-12T16:22:42.798Z,3.30
2023-05-12T16:27:46.193Z,7.68
2023-05-12T16:32:51.778Z,3.20
2023-05-12T16:37:54.695Z,4.63
2023-05-12T16:42:57.776Z,6.18
2023-05-12T16:48:02.181Z,7.05
2023-05-12T16:53:05.722Z,7.47
2023-05-12T16:58:10.967Z,3.60
2023-05-12T17:03:15.864Z,2.42
2023-05-12T17:08:20.058Z,3.65
2023-05-12T17:13:23.792Z,2.95
2023-05-12T17:18:27.901Z,2.85
2023-05-12T17:23:31.750Z,3.15
2023-05-12T17:28:34.528Z,3.88
2023-05-12T17:33:40.380Z,4.30
2023-05-12T17:38:43.832Z,4.95
2023-05-12T17:43:47.674Z,4.03
2023-05-12T17:48:51.852Z,5.00
2023-05-12T17:53:54.593Z,7.03
2023-05-12T17:58:59.350Z,4.65
2023-05-12T18:04:03.680Z,8.50
2023-05-12T18:09:08.621Z,10.60
2023-05-12T18:14:11.527Z,9.48
2023-05-12T18:19:16.335Z,5.68
2023-05-12T18:24:19.451Z,7.28
2023-05-12T18:29:22.804Z,4.90
2023-05-12T18:34:27.423Z,5.80
2023-05-12T18:39:31.172Z,4.57
2023-05-12T18:44:36.262Z,5.32
2023-05-12T18:49:40.397Z,13.43
2023-05-12T18:54:46.867Z,9.93
2023-05-12T18:59:51.740Z,9.88
2023-05-12T19:04:56.232Z,11.60
2023-05-12T19:09:59.836Z,10.45
2023-05-12T19:15:02.644Z,5.82
2023-05-12T19:20:09.913Z,5.35
2023-05-12T19:25:17.823Z,5.75
2023-05-12T19:30:21.284Z,7.15
2023-05-12T19:35:25.913Z,6.72
2023-05-12T19:40:30.612Z,5.97
2023-05-12T19:45:34.796Z,5.70
2023-05-12T19:50:40.077Z,5.68
2023-05-12T19:55:43.505Z,5.93
2023-05-12T20:00:46.215Z,5.78
2023-05-12T20:05:50.886Z,7.88
2023-05-12T20:10:53.625Z,20.98
2023-05-12T20:15:56.441Z,15.57
2023-05-12T20:21:01.148Z,10.77
2023-05-12T20:26:04.910Z,10.05
2023-05-12T20:31:09.699Z,11.43
2023-05-12T20:36:13.794Z,10.45
2023-05-12T20:41:17.035Z,11.80
2023-05-12T20:46:20.082Z,13.75
2023-05-12T20:51:24.572Z,9.73
2023-05-12T20:56:27.593Z,7.65
2023-05-12T21:01:31.034Z,8.25
2023-05-12T21:06:36.562Z,8.63
2023-05-12T21:11:39.864Z,9.75
2023-05-12T21:16:42.653Z,9.07
2023-05-12T21:21:46.864Z,10.43
2023-05-12T21:26:49.576Z,12.40
2023-05-12T21:31:52.377Z,11.93
2023-05-12T21:36:56.801Z,11.60
2023-05-12T21:42:01.625Z,11.20
2023-05-12T21:47:04.581Z,9.77
2023-05-12T21:52:08.980Z,9.25
2023-05-12T21:57:12.603Z,8.60
2023-05-12T22:02:15.434Z,8.18
2023-05-12T22:07:19.777Z,8.02
2023-05-12T22:12:22.692Z,8.13
2023-05-12T22:17:25.672Z,7.20
2023-05-12T22:22:30.022Z,8.18
2023-05-12T22:27:32.795Z,6.90
2023-05-12T22:32:35.587Z,7.40
2023-05-12T22:37:40.481Z,7.25
2023-05-12T22:42:43.328Z,6.50
2023-05-12T22:47:46.106Z,7.60
2023-05-12T22:52:50.310Z,8.38
2023-05-12T22:57:53.429Z,7.60
2023-05-12T23:02:56.295Z,8.38
2023-05-12T23:08:00.570Z,7.57
2023-05-12T23:13:03.325Z,7.80
2023-05-12T23:18:06.135Z,7.03
2023-05-12T23:23:11.070Z,8.52
2023-05-12T23:28:13.785Z,7.93
2023-05-12T23:33:16.615Z,7.00
2023-05-12T23:38:20.877Z,6.50
2023-05-12T23:43:23.572Z,6.38
2023-05-12T23:48:26.294Z,8.70
2023-05-12T23:53:30.479Z,6.85
2023-05-12T23:58:33.299Z,7.18
